This is the latest recevied weather packets stored in our database for station/object K8CWG. If no packets are shown the sender has not sent any weather packets the latest 10 day(s).
| Time | Temp. | Humidity | Pressure | Rain* | Wind** | Luminosity | Snow |
|---|---|---|---|---|---|---|---|
| 1777482003 | 13.89° C | 96% | 1007.9 hPa | 0.76 mm | - | - | - |
| 1777478402 | 15° C | 95% | 1007.7 hPa | 0.25 mm | - | - | - |
| 1777474802 | 14.44° C | 97% | 1007.5 hPa | 4.83 mm | - | - | - |
| 1777471202 | 15° C | 95% | 1007.9 hPa | 0.51 mm | - | - | - |
| 1777467602 | 15° C | 95% | 1008.1 hPa | 0 mm | - | - | - |
| 1777464003 | 14.44° C | 96% | 1008.3 hPa | 0 mm | - | - | - |
| 1777460402 | 13.89° C | 96% | 1008.6 hPa | 0 mm | - | - | - |
| 1777456804 | 13.89° C | 95% | 1007.9 hPa | 0 mm | - | - | - |
| 1777453202 | 14.44° C | 94% | 1008.1 hPa | 0 mm | - | - | - |
| 1777449602 | 14.44° C | 94% | 1008.8 hPa | 0 mm | - | - | - |
| 1777446001 | 15° C | 94% | 1009.3 hPa | 0 mm | - | - | - |
| 1777442402 | 15.56° C | 90% | 1010.2 hPa | 0.25 mm | - | - | - |
| 1777440602 | 16.67° C | 85% | 1009.6 hPa | 0 mm | - | - | - |
| 1777438804 | 16.11° C | 86% | 1009.8 hPa | 0 mm | - | - | - |
| 1777436102 | 16.67° C | 84% | 1009.6 hPa | 0 mm | - | - | - |
| 1777435209 | 16.67° C | 83% | 1009.7 hPa | 0 mm | - | - | - |
| 1777432503 | 16.67° C | 83% | 1010.9 hPa | 0 mm | - | - | - |
| 1777431602 | 17.22° C | 83% | 1011.2 hPa | 0 mm | - | - | - |
| 1777428002 | 17.22° C | 82% | 1011.6 hPa | 0 mm | - | - | - |
| 1777424403 | 18.89° C | 76% | 1010.9 hPa | 0 mm | - | - | - |
| 1777420803 | 20.56° C | 67% | 1010.8 hPa | 0 mm | - | - | - |
| 1777419902 | 21.11° C | 66% | 1011.1 hPa | 0 mm | - | - | - |
| 1777419002 | 21.67° C | 66% | 1011 hPa | 0 mm | - | - | - |
| 1777418103 | 21.67° C | 65% | 1010.8 hPa | 0 mm | - | - | - |
| 1777417203 | 22.22° C | 63% | 1010.4 hPa | 0 mm | - | - | - |
* Rain latest hour (hover to see other rain measurements)
** Current wind speed in m/s (hover to see current wind gust speed)